createdAt,value
2023-04-03T00:01:06.380Z,2.97
2023-04-03T00:03:38.891Z,3.25
2023-04-03T00:06:13.087Z,3.25
2023-04-03T00:08:45.798Z,3.25
2023-04-03T00:11:19.333Z,3.30
2023-04-03T00:13:51.514Z,2.75
2023-04-03T00:16:23.892Z,3.42
2023-04-03T00:18:56.146Z,3.13
2023-04-03T00:21:28.419Z,3.50
2023-04-03T00:24:01.174Z,3.97
2023-04-03T00:26:33.847Z,3.20
2023-04-03T00:29:06.182Z,2.97
2023-04-03T00:31:38.420Z,3.63
2023-04-03T00:34:10.629Z,3.35
2023-04-03T00:36:43.083Z,3.58
2023-04-03T00:39:15.772Z,3.17
2023-04-03T00:41:48.125Z,3.80
2023-04-03T00:44:29.467Z,3.45
2023-04-03T00:47:03.412Z,3.35
2023-04-03T00:49:37.422Z,3.05
2023-04-03T00:52:16.957Z,3.28
2023-04-03T00:54:51.868Z,3.72
2023-04-03T00:57:24.458Z,3.92
2023-04-03T01:00:04.846Z,3.70
2023-04-03T01:02:37.916Z,3.42
2023-04-03T01:05:11.149Z,3.13
2023-04-03T01:07:43.653Z,3.67
2023-04-03T01:10:21.988Z,3.10
2023-04-03T01:12:54.166Z,3.63
2023-04-03T01:15:31.504Z,4.05
2023-04-03T01:18:05.926Z,3.40
2023-04-03T01:21:02.651Z,3.92
2023-04-03T01:24:05.758Z,3.40
2023-04-03T01:26:38.219Z,3.63
2023-04-03T01:29:13.234Z,3.65
2023-04-03T01:32:01.297Z,3.55
2023-04-03T01:34:33.958Z,3.67
2023-04-03T01:37:06.290Z,3.90
2023-04-03T01:39:38.652Z,3.88
2023-04-03T01:42:14.058Z,3.30
2023-04-03T01:44:47.127Z,3.88
2023-04-03T01:47:19.428Z,4.00
2023-04-03T01:49:51.673Z,4.07
2023-04-03T01:52:23.849Z,3.67
2023-04-03T01:54:56.211Z,4.10
2023-04-03T01:57:28.883Z,3.42
2023-04-03T02:00:01.364Z,3.83
2023-04-03T02:02:33.708Z,4.07
2023-04-03T02:05:06.392Z,3.55
2023-04-03T02:07:38.650Z,3.42
2023-04-03T02:10:11.688Z,3.13
2023-04-03T02:12:44.038Z,3.85
2023-04-03T02:15:16.652Z,3.65
2023-04-03T02:17:49.139Z,3.38
2023-04-03T02:20:21.700Z,3.55
2023-04-03T02:22:53.802Z,3.65
2023-04-03T02:25:26.513Z,3.65
2023-04-03T02:27:59.131Z,3.25
2023-04-03T02:30:33.047Z,4.13
2023-04-03T02:33:05.245Z,3.72
2023-04-03T02:35:38.189Z,3.28
2023-04-03T02:38:10.316Z,3.33
2023-04-03T02:40:42.571Z,4.03
2023-04-03T02:43:15.042Z,3.53
2023-04-03T02:45:47.526Z,3.88
2023-04-03T02:48:19.701Z,3.00
2023-04-03T02:50:52.233Z,4.53
2023-04-03T02:53:25.198Z,3.42
2023-04-03T02:55:57.348Z,4.40
2023-04-03T02:58:29.514Z,3.78
2023-04-03T03:01:01.671Z,3.67
2023-04-03T03:03:33.925Z,3.97
2023-04-03T03:06:10.653Z,4.13
2023-04-03T03:08:43.510Z,3.72
2023-04-03T03:11:15.868Z,3.95
2023-04-03T03:13:48.639Z,3.55
2023-04-03T03:16:21.102Z,3.95
2023-04-03T03:18:53.301Z,3.03
2023-04-03T03:21:25.595Z,3.45
2023-04-03T03:23:57.769Z,3.40
2023-04-03T03:26:30.247Z,3.92
2023-04-03T03:29:02.414Z,3.45
2023-04-03T03:31:34.699Z,3.38
2023-04-03T03:34:06.962Z,3.50
2023-04-03T03:36:41.990Z,3.63
2023-04-03T03:39:15.043Z,3.78
2023-04-03T03:41:58.708Z,3.60
2023-04-03T03:44:31.444Z,4.18
2023-04-03T03:47:09.398Z,3.47
2023-04-03T03:49:42.204Z,3.22
2023-04-03T03:52:14.530Z,3.70
2023-04-03T03:54:47.517Z,3.30
2023-04-03T04:00:13.255Z,4.07
2023-04-03T04:02:47.990Z,3.15
2023-04-03T04:05:20.984Z,3.65
2023-04-03T04:07:53.140Z,4.45
2023-04-03T04:10:25.602Z,5.30
2023-04-03T04:12:58.640Z,4.30
2023-04-03T04:15:31.293Z,4.32
2023-04-03T04:18:03.506Z,3.75
2023-04-03T04:20:35.845Z,3.38
2023-04-03T04:23:08.038Z,3.55
2023-04-03T04:25:40.259Z,3.47
2023-04-03T04:28:12.653Z,4.13
2023-04-03T04:30:45.174Z,3.97
2023-04-03T04:33:17.583Z,4.30
2023-04-03T04:35:50.064Z,3.80
2023-04-03T04:38:22.294Z,4.45
2023-04-03T04:40:54.413Z,3.40
2023-04-03T04:43:26.642Z,6.05
2023-04-03T04:46:17.502Z,3.53
2023-04-03T04:48:49.790Z,3.33
2023-04-03T04:51:22.069Z,3.72
2023-04-03T04:53:56.055Z,4.10
2023-04-03T04:56:28.308Z,4.13
2023-04-03T04:59:00.459Z,3.45
2023-04-03T05:01:32.803Z,3.58
2023-04-03T05:04:05.041Z,3.83
2023-04-03T05:06:37.184Z,3.35
2023-04-03T05:09:11.119Z,3.70
2023-04-03T05:11:44.220Z,4.53
2023-04-03T05:14:16.693Z,5.15
2023-04-03T05:16:51.471Z,4.50
2023-04-03T05:19:25.747Z,3.60
2023-04-03T05:22:01.848Z,3.78
2023-04-03T05:24:34.247Z,3.65
2023-04-03T05:27:06.398Z,3.50
2023-04-03T05:29:38.667Z,3.65
2023-04-03T05:32:12.249Z,3.42
2023-04-03T05:34:44.498Z,3.53
2023-04-03T05:37:16.748Z,3.40
2023-04-03T05:39:49.120Z,4.28
2023-04-03T05:42:21.202Z,4.43
2023-04-03T05:44:53.417Z,4.70
2023-04-03T05:47:25.717Z,3.95
2023-04-03T05:49:58.007Z,4.13
2023-04-03T05:52:38.492Z,4.32
2023-04-03T05:55:10.864Z,3.75
2023-04-03T05:57:43.359Z,3.38
2023-04-03T06:00:17.123Z,3.78
2023-04-03T06:02:49.563Z,3.97
2023-04-03T06:05:21.970Z,4.55
2023-04-03T06:07:54.154Z,4.05
2023-04-03T06:10:26.325Z,3.97
2023-04-03T06:12:58.501Z,3.90
2023-04-03T06:15:30.773Z,3.55
2023-04-03T06:18:04.041Z,3.38
2023-04-03T06:20:36.959Z,4.13
2023-04-03T06:23:09.479Z,3.80
2023-04-03T06:25:42.039Z,4.00
2023-04-03T06:28:14.467Z,3.47
2023-04-03T06:30:46.685Z,4.22
2023-04-03T06:33:19.205Z,3.80
2023-04-03T06:35:51.995Z,3.50
2023-04-03T06:38:24.457Z,3.50
2023-04-03T06:40:57.305Z,3.95
2023-04-03T06:46:59.846Z,3.87
2023-04-03T06:50:15.741Z,3.10
2023-04-03T06:53:24.398Z,3.20
2023-04-03T06:56:36.282Z,3.58
2023-04-03T06:59:09.956Z,3.45
2023-04-03T07:01:52.388Z,3.05
2023-04-03T07:05:15.065Z,3.20
2023-04-03T07:11:49.956Z,2.88
2023-04-03T07:14:22.867Z,3.50
2023-04-03T07:17:08.432Z,3.30
2023-04-03T07:19:42.961Z,3.15
2023-04-03T07:22:21.371Z,2.67
2023-04-03T07:30:30.481Z,3.33
2023-04-03T07:33:07.643Z,2.53
2023-04-03T07:38:56.501Z,2.60
2023-04-03T07:41:34.141Z,2.85
2023-04-03T07:47:59.676Z,2.13
2023-04-03T07:50:38.506Z,3.05
2023-04-03T07:53:15.678Z,2.05
2023-04-03T07:56:27.776Z,2.20
2023-04-03T07:59:04.614Z,2.60
2023-04-03T08:02:34.093Z,1.75
2023-04-03T08:10:05.680Z,2.47
2023-04-03T08:13:30.067Z,2.08
2023-04-03T08:20:26.966Z,1.98
2023-04-03T09:02:50.114Z,0.85
2023-04-03T09:13:48.436Z,1.00
2023-04-03T09:17:47.747Z,0.70
2023-04-03T09:20:58.360Z,0.60
2023-04-03T09:27:18.584Z,0.70
2023-04-03T09:29:55.704Z,0.95
2023-04-03T09:32:32.486Z,0.82
2023-04-03T09:35:44.665Z,0.90
2023-04-03T09:38:23.544Z,0.50
2023-04-03T09:41:14.989Z,0.60
2023-04-03T09:44:46.216Z,0.63
2023-04-03T09:47:31.829Z,0.93
2023-04-03T09:50:16.059Z,0.68
2023-04-03T09:52:57.455Z,1.10
2023-04-03T09:55:32.978Z,1.10
2023-04-03T09:58:42.734Z,0.55
2023-04-03T10:01:31.891Z,0.70
2023-04-03T10:05:08.348Z,0.75
2023-04-03T10:07:46.462Z,0.45
2023-04-03T10:10:27.400Z,0.90
2023-04-03T10:13:20.147Z,0.40
2023-04-03T10:17:23.471Z,0.98
2023-04-03T10:20:59.442Z,0.73
2023-04-03T10:23:52.879Z,1.95
2023-04-03T10:26:47.569Z,0.73
2023-04-03T10:30:18.440Z,0.30
2023-04-03T10:33:26.015Z,0.50
2023-04-03T10:36:21.720Z,0.60
2023-04-03T10:39:13.280Z,0.75
2023-04-03T10:42:23.942Z,0.60
2023-04-03T10:45:17.697Z,0.60
2023-04-03T10:47:58.818Z,0.95
2023-04-03T10:51:02.986Z,0.43
2023-04-03T10:54:07.235Z,0.80
2023-04-03T10:56:58.017Z,0.55
2023-04-03T10:59:47.190Z,0.75
2023-04-03T11:02:37.994Z,0.70
2023-04-03T11:05:29.788Z,0.52
2023-04-03T11:08:33.517Z,0.80
2023-04-03T11:11:19.072Z,0.63
2023-04-03T11:14:11.562Z,0.70
2023-04-03T11:16:57.542Z,0.80
2023-04-03T11:19:46.323Z,0.75
2023-04-03T11:22:43.368Z,0.70
2023-04-03T11:25:23.432Z,0.52
2023-04-03T11:28:08.379Z,0.43
2023-04-03T11:31:04.604Z,1.05
2023-04-03T11:33:45.406Z,0.77
2023-04-03T11:36:33.106Z,0.60
2023-04-03T11:39:29.725Z,0.85
2023-04-03T11:42:32.015Z,0.88
2023-04-03T11:45:23.080Z,0.70
2023-04-03T11:48:30.716Z,0.80
2023-04-03T11:51:17.518Z,0.55
2023-04-03T11:53:50.658Z,1.08
2023-04-03T11:56:28.650Z,0.70
2023-04-03T11:59:13.384Z,1.02
2023-04-03T12:01:51.882Z,0.80
2023-04-03T12:04:28.064Z,0.70
2023-04-03T12:07:16.276Z,0.90
2023-04-03T12:09:48.968Z,2.70
2023-04-03T12:12:42.285Z,1.08
2023-04-03T12:15:46.573Z,0.80
2023-04-03T12:18:56.761Z,1.10
2023-04-03T12:21:29.592Z,0.75
2023-04-03T12:24:09.064Z,1.00
2023-04-03T12:27:04.507Z,1.67
2023-04-03T12:29:48.556Z,0.90
2023-04-03T12:33:15.515Z,1.05
2023-04-03T12:36:14.002Z,1.25
2023-04-03T12:39:16.912Z,0.90
2023-04-03T12:42:16.539Z,1.20
2023-04-03T12:45:01.934Z,0.60
2023-04-03T12:47:39.351Z,0.93
2023-04-03T12:50:31.355Z,1.08
2023-04-03T12:53:06.783Z,1.00
2023-04-03T12:55:39.789Z,1.08
2023-04-03T12:58:27.891Z,1.10
2023-04-03T13:01:19.488Z,1.30
2023-04-03T13:04:58.328Z,1.20
2023-04-03T13:07:38.244Z,1.10
2023-04-03T13:10:25.021Z,1.25
2023-04-03T13:13:29.717Z,1.67
2023-04-03T13:16:37.142Z,1.40
2023-04-03T13:22:21.947Z,1.52
2023-04-03T13:25:11.937Z,1.52
2023-04-03T13:27:45.759Z,1.15
2023-04-03T13:30:41.691Z,1.13
2023-04-03T13:37:09.341Z,1.20
2023-04-03T13:39:46.301Z,1.50
2023-04-03T13:49:44.617Z,1.20
2023-04-03T13:52:42.047Z,1.15
2023-04-03T13:55:26.736Z,1.13
2023-04-03T13:58:18.199Z,1.58
2023-04-03T14:01:03.108Z,1.33
2023-04-03T14:04:03.565Z,1.40
2023-04-03T14:06:45.122Z,1.17
2023-04-03T14:09:21.583Z,1.50
2023-04-03T14:12:30.136Z,1.13
2023-04-03T14:15:35.293Z,1.38
2023-04-03T14:18:08.131Z,1.38
2023-04-03T14:20:41.415Z,1.52
2023-04-03T14:23:14.457Z,2.30
2023-04-03T14:25:48.074Z,1.98
2023-04-03T14:31:29.002Z,1.45
2023-04-03T14:34:04.029Z,1.67
2023-04-03T14:36:36.816Z,1.75
2023-04-03T14:39:18.087Z,1.35
2023-04-03T14:45:06.103Z,1.58
2023-04-03T14:47:52.905Z,1.40
2023-04-03T14:51:45.072Z,1.60
2023-04-03T14:55:25.443Z,3.75
2023-04-03T15:02:00.373Z,1.98
2023-04-03T15:04:41.020Z,1.40
2023-04-03T15:12:21.750Z,2.00
2023-04-03T15:15:56.640Z,1.73
2023-04-03T15:18:39.373Z,1.40
2023-04-03T15:21:14.236Z,1.73
2023-04-03T15:24:00.446Z,1.80
2023-04-03T15:26:37.732Z,1.75
2023-04-03T15:29:14.916Z,1.83
2023-04-03T15:35:32.505Z,1.52
2023-04-03T15:38:07.294Z,1.98
2023-04-03T15:44:35.036Z,1.70
2023-04-03T15:47:09.285Z,1.88
2023-04-03T15:49:44.794Z,1.80
2023-04-03T15:52:30.191Z,1.70
2023-04-03T15:58:47.123Z,1.83
2023-04-03T16:04:11.761Z,1.77
2023-04-03T16:09:32.798Z,1.80
2023-04-03T16:13:24.865Z,1.77
2023-04-03T16:16:01.412Z,2.00
2023-04-03T16:18:39.609Z,2.05
2023-04-03T16:22:27.394Z,1.80
2023-04-03T16:25:04.138Z,1.70
2023-04-03T16:27:45.085Z,2.03
2023-04-03T16:30:34.561Z,2.13
2023-04-03T16:33:09.073Z,2.10
2023-04-03T16:35:43.213Z,2.22
2023-04-03T16:38:16.678Z,1.75
2023-04-03T16:40:49.873Z,2.63
2023-04-03T16:43:22.048Z,2.13
2023-04-03T16:45:54.421Z,2.13
2023-04-03T16:48:26.791Z,2.22
2023-04-03T16:50:59.534Z,2.42
2023-04-03T16:53:31.752Z,1.90
2023-04-03T16:56:04.255Z,2.20
2023-04-03T16:58:36.538Z,2.25
2023-04-03T17:01:18.836Z,2.13
2023-04-03T17:03:51.220Z,2.25
2023-04-03T17:06:24.764Z,2.83
2023-04-03T17:08:56.935Z,2.42
2023-04-03T17:11:30.675Z,2.50
2023-04-03T17:14:03.229Z,1.95
2023-04-03T17:16:38.377Z,4.47
2023-04-03T17:19:10.735Z,2.20
2023-04-03T17:21:42.895Z,4.43
2023-04-03T17:24:16.229Z,3.38
2023-04-03T17:26:48.853Z,6.63
2023-04-03T17:29:21.281Z,3.72
2023-04-03T17:31:53.841Z,3.78
2023-04-03T17:34:26.193Z,3.45
2023-04-03T17:36:58.588Z,3.45
2023-04-03T17:39:32.314Z,2.80
2023-04-03T17:42:04.958Z,3.58
2023-04-03T17:44:37.785Z,2.50
2023-04-03T17:47:10.349Z,2.97
2023-04-03T17:49:42.867Z,3.53
2023-04-03T17:52:15.121Z,2.78
2023-04-03T17:54:47.408Z,2.58
2023-04-03T17:57:20.003Z,2.75
2023-04-03T17:59:54.207Z,2.55
2023-04-03T18:02:26.595Z,2.80
2023-04-03T18:04:58.882Z,2.40
2023-04-03T18:07:31.161Z,2.92
2023-04-03T18:10:05.382Z,3.25
2023-04-03T18:12:38.179Z,2.67
2023-04-03T18:15:11.692Z,3.17
2023-04-03T18:17:44.090Z,2.90
2023-04-03T18:20:18.205Z,3.20
2023-04-03T18:22:51.668Z,3.15
2023-04-03T18:25:23.975Z,3.03
2023-04-03T18:27:58.750Z,3.08
2023-04-03T18:30:31.025Z,3.15
2023-04-03T18:33:03.611Z,3.20
2023-04-03T18:35:36.101Z,3.00
2023-04-03T18:38:08.417Z,2.80
2023-04-03T18:40:42.859Z,5.40
2023-04-03T18:43:15.745Z,3.28
2023-04-03T18:45:48.140Z,3.25
2023-04-03T18:48:21.499Z,3.15
2023-04-03T18:50:55.728Z,2.85
2023-04-03T18:53:28.555Z,4.20
2023-04-03T18:56:00.831Z,2.92
2023-04-03T18:58:33.117Z,3.33
2023-04-03T19:01:06.931Z,4.55
2023-04-03T19:03:39.579Z,3.78
2023-04-03T19:06:12.521Z,3.03
2023-04-03T19:08:44.957Z,2.65
2023-04-03T19:11:17.344Z,3.05
2023-04-03T19:14:04.460Z,3.80
2023-04-03T19:16:42.020Z,3.75
2023-04-03T19:19:14.464Z,3.67
2023-04-03T19:21:46.699Z,3.15
2023-04-03T19:24:19.119Z,4.00
2023-04-03T19:26:51.645Z,3.13
2023-04-03T19:29:23.997Z,3.20
2023-04-03T19:31:56.409Z,2.97
2023-04-03T19:34:28.892Z,2.83
2023-04-03T19:37:01.249Z,2.85
2023-04-03T19:39:36.051Z,2.22
2023-04-03T19:42:08.507Z,2.78
2023-04-03T19:44:41.216Z,3.97
2023-04-03T19:47:16.487Z,3.25
2023-04-03T19:49:52.522Z,2.60
2023-04-03T19:53:29.877Z,2.55
2023-04-03T19:56:07.313Z,2.65
2023-04-03T20:02:15.225Z,2.90
2023-04-03T20:05:05.489Z,2.78
2023-04-03T20:08:31.928Z,2.08
2023-04-03T20:11:47.632Z,2.20
2023-04-03T20:14:21.141Z,1.98
2023-04-03T20:16:54.093Z,2.95
2023-04-03T20:19:27.074Z,2.20
2023-04-03T20:22:02.051Z,2.30
2023-04-03T20:24:34.564Z,2.20
2023-04-03T20:27:07.720Z,7.20
2023-04-03T20:29:40.269Z,3.47
2023-04-03T20:32:14.860Z,2.50
2023-04-03T20:34:57.472Z,2.53
2023-04-03T20:37:36.268Z,2.67
2023-04-03T20:40:09.742Z,2.78
2023-04-03T20:42:42.014Z,2.40
2023-04-03T20:45:14.580Z,3.00
2023-04-03T20:47:46.970Z,2.47
2023-04-03T20:50:21.554Z,6.05
2023-04-03T20:52:57.886Z,21.52
2023-04-03T20:55:31.008Z,4.82
2023-04-03T20:58:03.911Z,2.50
2023-04-03T21:00:38.261Z,2.70
2023-04-03T21:03:11.146Z,2.70
2023-04-03T21:05:43.306Z,2.60
2023-04-03T21:09:12.211Z,2.35
2023-04-03T21:12:40.967Z,2.65
2023-04-03T21:15:51.508Z,2.20
2023-04-03T21:19:00.962Z,2.65
2023-04-03T21:21:37.540Z,3.17
2023-04-03T21:24:11.377Z,2.97
2023-04-03T21:26:46.884Z,2.90
2023-04-03T21:29:19.077Z,2.70
2023-04-03T21:31:58.667Z,3.42
2023-04-03T21:34:32.299Z,3.05
2023-04-03T21:37:09.824Z,2.95
2023-04-03T21:39:42.582Z,2.85
2023-04-03T21:42:14.768Z,2.55
2023-04-03T21:44:48.969Z,2.80
2023-04-03T21:47:21.602Z,3.03
2023-04-03T21:49:54.044Z,2.90
2023-04-03T21:52:26.512Z,2.70
2023-04-03T21:54:58.692Z,2.30
2023-04-03T21:57:31.508Z,2.60
2023-04-03T22:00:06.505Z,3.22
2023-04-03T22:02:41.894Z,2.80
2023-04-03T22:05:14.183Z,2.75
2023-04-03T22:07:48.081Z,3.13
2023-04-03T22:10:20.274Z,2.60
2023-04-03T22:12:53.539Z,2.75
2023-04-03T22:15:26.153Z,3.58
2023-04-03T22:17:58.365Z,2.75
2023-04-03T22:20:31.063Z,2.88
2023-04-03T22:23:03.866Z,3.47
2023-04-03T22:25:36.604Z,2.85
2023-04-03T22:28:08.788Z,3.13
2023-04-03T22:30:42.248Z,3.08
2023-04-03T22:33:14.464Z,3.25
2023-04-03T22:35:50.913Z,3.17
2023-04-03T22:38:24.227Z,3.30
2023-04-03T22:41:00.860Z,3.03
2023-04-03T22:43:34.809Z,3.03
2023-04-03T22:46:09.893Z,2.90
2023-04-03T22:48:43.749Z,3.33
2023-04-03T22:51:15.906Z,3.10
2023-04-03T22:53:48.281Z,3.30
2023-04-03T22:56:23.310Z,3.95
2023-04-03T22:58:57.668Z,3.33
2023-04-03T23:01:30.458Z,3.40
2023-04-03T23:04:02.744Z,3.00
2023-04-03T23:06:35.026Z,3.03
2023-04-03T23:09:07.616Z,3.30
2023-04-03T23:11:39.968Z,2.72
2023-04-03T23:14:12.120Z,3.45
2023-04-03T23:16:44.550Z,3.85
2023-04-03T23:19:16.842Z,3.45
2023-04-03T23:21:49.139Z,3.42
2023-04-03T23:24:21.631Z,3.08
2023-04-03T23:26:53.771Z,2.72
2023-04-03T23:29:25.984Z,2.60
2023-04-03T23:31:58.768Z,2.97
2023-04-03T23:34:31.066Z,3.05
2023-04-03T23:37:04.448Z,3.08
2023-04-03T23:39:36.779Z,2.95
2023-04-03T23:42:11.138Z,3.97
2023-04-03T23:44:43.231Z,3.00
2023-04-03T23:47:15.368Z,3.63
2023-04-03T23:49:47.491Z,3.47
2023-04-03T23:52:19.854Z,3.10
2023-04-03T23:54:52.017Z,3.30
2023-04-03T23:57:24.147Z,3.20
2023-04-03T23:59:56.391Z,3.33
